Time;durP1;ratioP1;P1;durP2;ratioP2;P2;SDS_P1;SDS_P2;PMS_P1;PMS_P2;Temp;Humidity;BMP_temperature;BMP_pressure;BME280_temperature;BME280_humidity;BME280_pressure;Samples;Min_cycle;Max_cycle;Signal;HPM_P1;HPM_P2
2022/01/09 00:01:52;;;;;;;;;;;;;;;-1.34;100.00;99278.00;5012748;28;1967;-75
2022/01/09 00:04:18;;;;;;;;;;;;;;;-1.35;100.00;99270.94;5029039;28;1266;-74
2022/01/09 00:06:44;;;;;;;;;;;;;;;-1.34;100.00;99267.34;5029982;28;1018;-74
2022/01/09 00:09:11;;;;;;;;;;;;;;;-1.37;100.00;99267.50;5029079;28;971;-74
2022/01/09 00:11:37;;;;;;;;;;;;;;;-1.40;100.00;99273.03;5028900;28;1423;-73
2022/01/09 00:14:04;;;;;;;;;;;;;;;-1.47;100.00;99261.84;5030108;28;844;-75
2022/01/09 00:16:30;;;;;;;;;;;;;;;-1.47;100.00;99258.31;5028772;28;848;-75
2022/01/09 00:18:57;;;;;;;;;;;;;;;-1.47;100.00;99255.66;5012386;28;1233;-74
2022/01/09 00:21:24;;;;;;;;;;;;;;;-1.50;100.00;99263.81;5028854;28;1338;-73
2022/01/09 00:23:50;;;;;;;;;;;;;;;-1.50;100.00;99253.16;5012389;28;1977;-74
2022/01/09 00:26:16;;;;;;;;;;;;;;;-1.50;100.00;99250.50;5029025;28;756;-74
2022/01/09 00:28:43;;;;;;;;;;;;;;;-1.50;100.00;99246.03;5030196;28;887;-73
2022/01/09 00:31:09;;;;;;;;;;;;;;;-1.52;100.00;99235.47;5028876;28;1400;-74
2022/01/09 00:33:35;;;;;;;;;;;;;;;-1.58;100.00;99235.78;5030234;28;836;-74
2022/01/09 00:36:03;;;;;;;;;;;;;;;-1.63;100.00;99237.88;5028562;28;696;-74
2022/01/09 00:38:29;;;;;;;;;;;;;;;-1.66;100.00;99231.84;5029870;28;990;-74
2022/01/09 00:40:55;;;;;;;;;;;;;;;-1.67;100.00;99232.78;5030108;28;1330;-74
2022/01/09 00:43:22;;;;;;;;;;;;;;;-1.71;100.00;99229.44;5029723;28;1981;-74
2022/01/09 00:45:48;;;;;;;;;;;;;;;-1.75;100.00;99225.22;5028702;28;1015;-74
2022/01/09 00:48:14;;;;;;;;;;;;;;;-1.76;100.00;99215.53;5030378;28;780;-75
2022/01/09 00:50:41;;;;;;;;;;;;;;;-1.73;100.00;99210.03;5030229;28;1395;-76
2022/01/09 00:53:08;;;;;;;;;;;;;;;-1.72;100.00;99211.78;5028822;28;967;-75
2022/01/09 00:55:35;;;;;;;;;;;;;;;-1.75;100.00;99211.91;5033111;28;994;-74
2022/01/09 00:58:01;;;;;;;;;;;;;;;-1.78;100.00;99212.09;5036058;28;1059;-75
2022/01/09 01:00:27;;;;;;;;;;;;;;;-1.76;100.00;99208.41;5035073;28;1144;-74
2022/01/09 01:02:53;;;;;;;;;;;;;;;-1.78;100.00;99206.78;5029927;28;1993;-75
2022/01/09 01:05:20;;;;;;;;;;;;;;;-1.83;100.00;99206.16;5030021;28;802;-73
2022/01/09 01:07:46;;;;;;;;;;;;;;;-1.82;100.00;99206.06;5029808;28;999;-74
2022/01/09 01:10:14;;;;;;;;;;;;;;;-1.82;100.00;99202.56;5029820;28;987;-73
2022/01/09 01:12:40;;;;;;;;;;;;;;;-1.78;100.00;99196.13;5028331;28;1309;-74
2022/01/09 01:15:07;;;;;;;;;;;;;;;-1.78;100.00;99196.13;5029107;28;2236;-75
2022/01/09 01:17:35;;;;;;;;;;;;;;;-1.83;100.00;99187.53;5029228;28;1157;-74
2022/01/09 01:20:01;;;;;;;;;;;;;;;-1.83;100.00;99183.09;5011972;28;1170;-75
2022/01/09 01:22:28;;;;;;;;;;;;;;;-1.85;100.00;99179.63;5029620;28;1983;-74
2022/01/09 01:24:56;;;;;;;;;;;;;;;-1.84;100.00;99178.69;5029392;28;1483;-74
2022/01/09 01:27:24;;;;;;;;;;;;;;;-1.88;100.00;99162.03;5030092;28;1280;-75
2022/01/09 01:29:50;;;;;;;;;;;;;;;-1.84;100.00;99176.03;5033193;28;821;-74
2022/01/09 01:32:17;;;;;;;;;;;;;;;-1.82;100.00;99163.50;5033564;28;1357;-73
2022/01/09 01:34:43;;;;;;;;;;;;;;;-1.78;100.00;99154.41;5033527;28;1030;-75
2022/01/09 01:37:09;;;;;;;;;;;;;;;-1.73;100.00;99162.16;5032725;28;990;-74
2022/01/09 01:39:35;;;;;;;;;;;;;;;-1.81;100.00;99154.59;5033245;28;1021;-73
2022/01/09 01:42:02;;;;;;;;;;;;;;;-1.81;100.00;99151.06;5032735;28;1302;-73
2022/01/09 01:44:39;;;;;;;;;;;;;;;-1.85;100.00;99151.22;5032901;28;1926;-72
2022/01/09 01:47:05;;;;;;;;;;;;;;;-1.84;100.00;99133.47;5032680;28;1038;-73
2022/01/09 01:49:32;;;;;;;;;;;;;;;-1.87;100.00;99139.81;5032793;28;783;-72
2022/01/09 01:51:59;;;;;;;;;;;;;;;-1.88;100.00;99131.94;5032452;28;1379;-72
2022/01/09 01:54:27;;;;;;;;;;;;;;;-1.92;100.00;99128.56;5031142;28;760;-73
2022/01/09 01:56:53;;;;;;;;;;;;;;;-1.94;100.00;99135.78;5032168;28;924;-73
2022/01/09 01:59:19;;;;;;;;;;;;;;;-1.91;100.00;99126.75;5032497;28;932;-75
2022/01/09 02:01:47;;;;;;;;;;;;;;;-1.93;100.00;99137.50;5032583;28;1329;-74
2022/01/09 02:04:13;;;;;;;;;;;;;;;-1.93;100.00;99126.00;5031219;28;1989;-74
2022/01/09 02:06:39;;;;;;;;;;;;;;;-1.92;100.00;99114.44;5032401;28;900;-75
2022/01/09 02:09:06;;;;;;;;;;;;;;;-1.94;100.00;99119.81;5032532;28;987;-74
2022/01/09 02:11:33;;;;;;;;;;;;;;;-1.93;100.00;99121.53;5032131;28;1314;-74
2022/01/09 02:13:59;;;;;;;;;;;;;;;-1.92;100.00;99111.78;5032799;28;796;-75
2022/01/09 02:16:26;;;;;;;;;;;;;;;-1.95;100.00;99107.47;5032645;28;660;-74
2022/01/09 02:18:54;;;;;;;;;;;;;;;-1.99;100.00;99103.28;5032557;28;1023;-74
2022/01/09 02:21:22;;;;;;;;;;;;;;;-2.01;100.00;99102.50;5032382;28;1302;-75
2022/01/09 02:23:49;;;;;;;;;;;;;;;-2.00;100.00;99096.22;5032462;28;1914;-74
2022/01/09 02:26:17;;;;;;;;;;;;;;;-2.02;100.00;99091.00;5030726;28;1025;-73
2022/01/09 02:28:43;;;;;;;;;;;;;;;-1.99;100.00;99091.75;5032274;28;832;-73
2022/01/09 02:31:09;;;;;;;;;;;;;;;-2.01;100.00;99089.19;5031925;28;1306;-74
2022/01/09 02:33:36;;;;;;;;;;;;;;;-2.01;100.00;99081.22;5032394;28;951;-74
2022/01/09 02:36:02;;;;;;;;;;;;;;;-2.02;100.00;99076.81;5014204;28;1148;-75
2022/01/09 02:38:30;;;;;;;;;;;;;;;-2.06;100.00;99069.97;5032010;28;785;-75
2022/01/09 02:40:56;;;;;;;;;;;;;;;-2.07;100.00;99061.16;5030728;28;1456;-74
2022/01/09 02:43:23;;;;;;;;;;;;;;;-2.08;100.00;99050.59;5030647;28;1910;-74
2022/01/09 02:45:56;;;;;;;;;;;;;;;-2.07;100.00;99058.47;5031638;28;895;-75
2022/01/09 02:48:22;;;;;;;;;;;;;;;-2.08;100.00;99055.91;5031649;28;871;-74
2022/01/09 02:51:00;;;;;;;;;;;;;;;-2.09;100.00;99064.81;5031597;28;1404;-74
2022/01/09 02:53:29;;;;;;;;;;;;;;;-2.10;100.00;99058.66;5045383;22;3468;-74
2022/01/09 02:55:57;;;;;;;;;;;;;;;-2.10;100.00;99053.34;5030774;28;987;-74
2022/01/09 02:58:23;;;;;;;;;;;;;;;-2.10;100.00;99053.34;5031430;28;749;-74
2022/01/09 03:00:49;;;;;;;;;;;;;;;-2.08;100.00;99051.44;5031322;28;869;-74
2022/01/09 03:03:15;;;;;;;;;;;;;;;-2.06;100.00;99049.56;5031311;28;2441;-74
2022/01/09 03:05:42;;;;;;;;;;;;;;;-2.07;100.00;99046.97;5031097;28;1073;-73
2022/01/09 03:08:09;;;;;;;;;;;;;;;-2.13;100.00;99044.69;5031222;28;982;-74
2022/01/09 03:10:35;;;;;;;;;;;;;;;-2.11;100.00;99045.44;5030002;28;924;-72
2022/01/09 03:13:05;;;;;;;;;;;;;;;-2.12;100.00;99038.41;5030110;28;1361;-74
2022/01/09 03:15:31;;;;;;;;;;;;;;;-2.07;100.00;99031.00;5029881;28;1043;-73
2022/01/09 03:17:57;;;;;;;;;;;;;;;-2.06;100.00;99032.75;5030849;28;983;-74
2022/01/09 03:20:25;;;;;;;;;;;;;;;-2.10;100.00;99034.72;5031240;28;990;-73
2022/01/09 03:22:53;;;;;;;;;;;;;;;-2.09;100.00;99017.81;5030960;28;1918;-73
2022/01/09 03:25:19;;;;;;;;;;;;;;;-2.12;100.00;99017.16;5030324;28;1468;-73
2022/01/09 03:27:48;;;;;;;;;;;;;;;-2.13;100.00;99024.25;5029462;28;1188;-72
2022/01/09 03:30:16;;;;;;;;;;;;;;;-2.10;100.00;99013.47;5029499;28;1270;-74
2022/01/09 03:32:43;;;;;;;;;;;;;;;-2.07;100.00;99005.31;5029484;28;1387;-74
2022/01/09 03:35:11;;;;;;;;;;;;;;;-2.07;100.00;99001.75;5030923;28;884;-73
2022/01/09 03:37:37;;;;;;;;;;;;;;;-2.07;100.00;98999.97;5030462;28;857;-73
2022/01/09 03:40:04;;;;;;;;;;;;;;;-2.08;100.00;98998.25;5029603;28;855;-75
2022/01/09 03:42:31;;;;;;;;;;;;;;;-2.06;100.00;98991.06;5030343;28;1014;-74
2022/01/09 03:44:57;;;;;;;;;;;;;;;-2.09;100.00;98991.22;5030529;28;1910;-75
2022/01/09 03:47:24;;;;;;;;;;;;;;;-2.11;100.00;98994.91;5030370;28;978;-74
2022/01/09 03:49:51;;;;;;;;;;;;;;;-2.11;100.00;98992.25;5030192;28;1061;-73
2022/01/09 03:52:17;;;;;;;;;;;;;;;-2.11;100.00;98994.91;5029590;28;1074;-75
2022/01/09 03:54:44;;;;;;;;;;;;;;;-2.11;100.00;98997.56;5030573;28;1280;-75
2022/01/09 03:57:10;;;;;;;;;;;;;;;-2.10;100.00;99000.16;5030692;28;919;-73
2022/01/09 03:59:36;;;;;;;;;;;;;;;-2.11;100.00;98998.44;5029910;28;1002;-75
2022/01/09 04:02:03;;;;;;;;;;;;;;;-2.12;100.00;99007.34;5032582;28;1033;-74
2022/01/09 04:04:30;;;;;;;;;;;;;;;-2.11;100.00;99002.88;5030534;28;2004;-74
2022/01/09 04:06:57;;;;;;;;;;;;;;;-2.10;100.00;99004.59;5030131;28;1018;-74
2022/01/09 04:09:36;;;;;;;;;;;;;;;-2.11;100.00;99001.09;5045900;28;784;-72
2022/01/09 04:12:03;;;;;;;;;;;;;;;-2.07;100.00;99009.75;5030429;28;904;-74
2022/01/09 04:14:30;;;;;;;;;;;;;;;-2.06;100.00;99011.47;5030468;28;1296;-74
2022/01/09 04:16:57;;;;;;;;;;;;;;;-2.06;100.00;99014.13;5030185;28;1001;-75
2022/01/09 04:19:23;;;;;;;;;;;;;;;-2.06;100.00;99008.81;5012343;28;1280;-72
2022/01/09 04:21:51;;;;;;;;;;;;;;;-2.03;100.00;99008.66;5030569;28;986;-74
2022/01/09 04:24:17;;;;;;;;;;;;;;;-2.03;100.00;99011.31;5030171;28;1916;-75
2022/01/09 04:26:44;;;;;;;;;;;;;;;-2.02;100.00;99005.03;5028626;28;868;-75
2022/01/09 04:29:10;;;;;;;;;;;;;;;-2.03;100.00;99006.84;5030205;28;1133;-73
2022/01/09 04:31:36;;;;;;;;;;;;;;;-2.03;100.00;99008.66;5030276;28;982;-74
2022/01/09 04:34:02;;;;;;;;;;;;;;;-2.05;100.00;99002.56;5028831;28;1274;-74
2022/01/09 04:36:29;;;;;;;;;;;;;;;-2.08;100.00;98992.94;5030144;28;765;-74
2022/01/09 04:38:56;;;;;;;;;;;;;;;-2.10;100.00;98999.28;5030137;28;868;-73
2022/01/09 04:41:23;;;;;;;;;;;;;;;-2.06;100.00;98985.75;5030321;28;901;-74
2022/01/09 04:43:50;;;;;;;;;;;;;;;-2.04;100.00;98981.19;5029965;28;1971;-75
2022/01/09 04:46:22;;;;;;;;;;;;;;;-2.08;100.00;98992.09;5029891;28;875;-74
2022/01/09 04:48:51;;;;;;;;;;;;;;;-2.08;100.00;98978.81;5029786;28;931;-74
2022/01/09 04:51:17;;;;;;;;;;;;;;;-2.04;100.00;98967.88;5029893;28;880;-75
2022/01/09 04:53:44;;;;;;;;;;;;;;;-2.01;100.00;98974.84;5029294;28;1340;-74
2022/01/09 04:56:11;;;;;;;;;;;;;;;-2.03;100.00;98974.09;5028453;28;1098;-73
2022/01/09 04:58:37;;;;;;;;;;;;;;;-2.03;100.00;98969.59;5029883;28;907;-73
2022/01/09 05:01:04;;;;;;;;;;;;;;;-2.05;100.00;98963.50;5030345;28;882;-74
2022/01/09 05:03:30;;;;;;;;;;;;;;;-2.02;100.00;98971.31;5032688;28;1915;-74
2022/01/09 05:05:56;;;;;;;;;;;;;;;-2.01;100.00;98961.53;5033246;28;1042;-73
2022/01/09 05:08:22;;;;;;;;;;;;;;;-1.99;100.00;98964.97;5033731;28;987;-73
2022/01/09 05:10:49;;;;;;;;;;;;;;;-1.98;100.00;98960.50;5033288;28;809;-73
2022/01/09 05:13:16;;;;;;;;;;;;;;;-2.03;100.00;98956.31;5028874;28;1814;-73
2022/01/09 05:15:43;;;;;;;;;;;;;;;-2.06;100.00;98966.25;5032206;28;1055;-75
2022/01/09 05:18:14;;;;;;;;;;;;;;;-2.10;100.00;98952.31;5024721;28;1380;-73
2022/01/09 05:20:40;;;;;;;;;;;;;;;-2.12;100.00;98954.19;5012514;28;1310;-73
2022/01/09 05:23:06;;;;;;;;;;;;;;;-2.14;100.00;98955.22;5012360;28;1329;-73
2022/01/09 05:25:33;;;;;;;;;;;;;;;-2.21;100.00;98955.53;5012237;28;1914;-73
2022/01/09 05:27:59;;;;;;;;;;;;;;;-2.18;100.00;98954.50;5013961;28;1464;-73
2022/01/09 05:30:26;;;;;;;;;;;;;;;-2.20;100.00;98956.41;5033187;28;1523;-74
2022/01/09 05:32:53;;;;;;;;;;;;;;;-2.20;100.00;98951.94;5032815;28;1404;-74
2022/01/09 05:35:19;;;;;;;;;;;;;;;-2.19;100.00;98947.50;5032955;28;1027;-73
2022/01/09 05:37:45;;;;;;;;;;;;;;;-2.19;100.00;98952.81;5032940;28;812;-73
2022/01/09 05:40:12;;;;;;;;;;;;;;;-2.22;100.00;98945.00;5033143;28;1049;-74
2022/01/09 05:42:38;;;;;;;;;;;;;;;-2.24;100.00;98942.44;5031744;28;1342;-72
2022/01/09 05:45:07;;;;;;;;;;;;;;;-2.19;100.00;98944.84;5032827;28;1922;-73
2022/01/09 05:47:35;;;;;;;;;;;;;;;-2.20;100.00;98951.94;5032662;28;971;-73
2022/01/09 05:50:01;;;;;;;;;;;;;;;-2.19;100.00;98956.34;5031318;28;1235;-74
2022/01/09 05:52:27;;;;;;;;;;;;;;;-2.20;100.00;98970.56;5031365;28;995;-72
2022/01/09 05:54:54;;;;;;;;;;;;;;;-2.22;100.00;98961.84;5032821;28;1383;-74
2022/01/09 05:57:20;;;;;;;;;;;;;;;-2.21;100.00;98962.69;5031292;28;1002;-73
2022/01/09 05:59:46;;;;;;;;;;;;;;;-2.21;100.00;98968.84;5032843;28;1038;-73
2022/01/09 06:02:12;;;;;;;;;;;;;;;-2.19;100.00;98964.31;5032847;28;741;-74
2022/01/09 06:04:40;;;;;;;;;;;;;;;-2.17;100.00;98963.38;5032883;28;1910;-73
2022/01/09 06:07:06;;;;;;;;;;;;;;;-2.17;100.00;98966.88;5033049;28;785;-74
2022/01/09 06:09:32;;;;;;;;;;;;;;;-2.20;100.00;98959.94;5032281;28;820;-74
2022/01/09 06:11:59;;;;;;;;;;;;;;;-2.19;100.00;98961.66;5032205;28;856;-74
2022/01/09 06:14:25;;;;;;;;;;;;;;;-2.13;100.00;98954.28;5032821;28;1332;-75
2022/01/09 06:16:51;;;;;;;;;;;;;;;-2.13;100.00;98952.47;5032528;28;1224;-75
2022/01/09 06:19:18;;;;;;;;;;;;;;;-2.12;100.00;98948.00;5032946;28;959;-73
2022/01/09 06:21:45;;;;;;;;;;;;;;;-2.10;100.00;98951.44;5032434;28;978;-75
2022/01/09 06:24:12;;;;;;;;;;;;;;;-2.13;100.00;98948.94;5030761;28;1919;-74
2022/01/09 06:26:38;;;;;;;;;;;;;;;-2.13;100.00;98949.78;5030907;28;998;-74
2022/01/09 06:29:04;;;;;;;;;;;;;;;-2.13;100.00;98951.63;5032132;28;766;-75
2022/01/09 06:31:30;;;;;;;;;;;;;;;-2.17;100.00;98952.72;5031202;28;866;-74
2022/01/09 06:33:57;;;;;;;;;;;;;;;-2.16;100.00;98954.44;5032021;28;1365;-74
2022/01/09 06:36:23;;;;;;;;;;;;;;;-2.13;100.00;98941.81;5030615;28;1238;-76
2022/01/09 06:38:51;;;;;;;;;;;;;;;-2.12;100.00;98942.69;5014582;28;1262;-74
2022/01/09 06:41:17;;;;;;;;;;;;;;;-2.15;100.00;98946.38;5032301;28;808;-74
2022/01/09 06:43:44;;;;;;;;;;;;;;;-2.13;100.00;98951.63;5030339;28;1445;-75
2022/01/09 06:46:10;;;;;;;;;;;;;;;-2.12;100.00;98954.19;5031437;28;1918;-74
2022/01/09 06:48:37;;;;;;;;;;;;;;;-2.08;100.00;98954.88;5031806;28;899;-74
2022/01/09 06:51:03;;;;;;;;;;;;;;;-2.03;100.00;98950.16;5030408;28;991;-74
2022/01/09 06:53:29;;;;;;;;;;;;;;;-2.02;100.00;98951.84;5031464;28;1328;-74
2022/01/09 06:55:57;;;;;;;;;;;;;;;-2.01;100.00;98956.22;5030149;28;1112;-74
2022/01/09 06:58:23;;;;;;;;;;;;;;;-2.02;100.00;98951.84;5031807;28;998;-74
2022/01/09 07:00:49;;;;;;;;;;;;;;;-2.05;100.00;98958.19;5031436;28;994;-74
2022/01/09 07:03:16;;;;;;;;;;;;;;;-2.03;100.00;98955.47;5030873;28;1469;-75
2022/01/09 07:05:42;;;;;;;;;;;;;;;-2.02;100.00;98949.19;5030997;28;1968;-73
2022/01/09 07:08:08;;;;;;;;;;;;;;;-2.04;100.00;98946.59;5046622;28;1505;-75
2022/01/09 07:10:36;;;;;;;;;;;;;;;-2.03;100.00;98943.00;5030479;28;1533;-75
2022/01/09 07:13:04;;;;;;;;;;;;;;;-2.03;100.00;98948.34;5013278;28;1560;-75
2022/01/09 07:15:30;;;;;;;;;;;;;;;-1.98;100.00;98945.41;5031763;28;1058;-74
2022/01/09 07:17:56;;;;;;;;;;;;;;;-1.97;100.00;98947.13;5030833;28;995;-75
2022/01/09 07:20:22;;;;;;;;;;;;;;;-1.94;100.00;98940.75;5030057;28;876;-75
2022/01/09 07:22:49;;;;;;;;;;;;;;;-1.94;100.00;98946.09;5030753;28;1564;-75
2022/01/09 07:25:15;;;;;;;;;;;;;;;-1.92;100.00;98934.41;5030816;28;1915;-75
2022/01/09 07:27:41;;;;;;;;;;;;;;;-1.85;100.00;98940.22;5029298;28;1536;-75
2022/01/09 07:30:09;;;;;;;;;;;;;;;-1.82;100.00;98945.34;5029683;28;1132;-75
2022/01/09 07:32:36;;;;;;;;;;;;;;;-1.79;100.00;98953.19;5031035;28;1556;-75
2022/01/09 07:35:02;;;;;;;;;;;;;;;-1.77;100.00;98945.94;5030153;28;1712;-75
2022/01/09 07:37:30;;;;;;;;;;;;;;;-1.73;100.00;98943.97;5030674;28;955;-75
2022/01/09 07:39:57;;;;;;;;;;;;;;;-1.70;100.00;98954.44;5030759;28;867;-75
2022/01/09 07:42:23;;;;;;;;;;;;;;;-1.67;100.00;98954.25;5030902;28;1003;-75
2022/01/09 07:44:49;;;;;;;;;;;;;;;-1.63;100.00;98949.59;5028768;28;1907;-75
2022/01/09 07:47:17;;;;;;;;;;;;;;;-1.56;100.00;98953.63;5030211;28;1611;-74
2022/01/09 07:49:43;;;;;;;;;;;;;;;-1.53;100.00;98950.78;5030817;28;935;-75
2022/01/09 07:52:09;;;;;;;;;;;;;;;-1.45;100.00;98945.00;5030306;28;1311;-74
2022/01/09 07:54:35;;;;;;;;;;;;;;;-1.42;100.00;98943.00;5029146;28;1412;-74
2022/01/09 07:57:02;;;;;;;;;;;;;;;-1.37;100.00;98945.38;5013368;28;1337;-75
2022/01/09 07:59:28;;;;;;;;;;;;;;;-1.36;100.00;98947.94;5028805;28;1533;-74
2022/01/09 08:01:54;;;;;;;;;;;;;;;-1.31;100.00;98954.81;5030463;28;1043;-76
2022/01/09 08:04:22;;;;;;;;;;;;;;;-1.30;100.00;98946.72;5030123;28;1911;-75
2022/01/09 08:06:48;;;;;;;;;;;;;;;-1.26;100.00;98958.03;5029141;28;1469;-76
2022/01/09 08:09:14;;;;;;;;;;;;;;;-1.26;100.00;98958.03;5029184;28;1518;-76
2022/01/09 08:11:41;;;;;;;;;;;;;;;-1.21;100.00;98951.47;5029011;28;1003;-75
2022/01/09 08:14:07;;;;;;;;;;;;;;;-1.19;100.00;98959.38;5024528;28;1355;-75
2022/01/09 08:16:33;;;;;;;;;;;;;;;-1.16;100.00;98966.31;5024059;28;1605;-75
2022/01/09 08:18:59;;;;;;;;;;;;;;;-1.14;100.00;98962.63;5029435;28;1551;-74
2022/01/09 08:21:29;;;;;;;;;;;;;;;-1.13;100.00;98956.34;5029727;28;1568;-76
2022/01/09 08:23:56;;;;;;;;;;;;;;;-1.10;100.00;98960.63;5029856;28;1583;-75
2022/01/09 08:26:22;;;;;;;;;;;;;;;-1.07;100.00;98956.00;5028753;28;1978;-76
2022/01/09 08:28:48;;;;;;;;;;;;;;;-1.05;100.00;98942.56;5029920;28;924;-75
2022/01/09 08:31:15;;;;;;;;;;;;;;;-1.02;100.00;98953.03;5029745;28;844;-74
2022/01/09 08:33:42;;;;;;;;;;;;;;;-0.95;100.00;98950.84;5027749;28;1584;-75
2022/01/09 08:36:08;;;;;;;;;;;;;;;-0.90;100.00;98943.41;5030624;28;998;-76
2022/01/09 08:38:35;;;;;;;;;;;;;;;-0.86;100.00;98939.63;5033966;28;844;-75
2022/01/09 08:41:02;;;;;;;;;;;;;;;-0.79;100.00;98943.59;5033570;28;1469;-75
2022/01/09 08:43:31;;;;;;;;;;;;;;;-0.75;100.00;98936.28;5033937;28;1474;-77
2022/01/09 08:45:57;;;;;;;;;;;;;;;-0.71;100.00;98944.00;5033278;28;1906;-74
2022/01/09 08:48:23;;;;;;;;;;;;;;;-0.69;100.00;98941.22;5033963;28;995;-73
2022/01/09 08:50:49;;;;;;;;;;;;;;;-0.67;100.00;98947.28;5033721;28;1497;-76
2022/01/09 08:53:16;;;;;;;;;;;;;;;-0.66;100.00;98943.69;5034000;28;1364;-75
2022/01/09 08:55:43;;;;;;;;;;;;;;;-0.63;100.00;98950.63;5048999;22;3581;-71
2022/01/09 08:58:10;;;;;;;;;;;;;;;-0.61;100.00;98944.25;5033342;28;1564;-71
2022/01/09 09:00:36;;;;;;;;;;;;;;;-0.55;100.00;98949.22;5034263;28;970;-73
2022/01/09 09:03:04;;;;;;;;;;;;;;;-0.51;100.00;98953.38;5033603;28;1679;-68
2022/01/09 09:05:30;;;;;;;;;;;;;;;-0.46;100.00;98949.56;5033315;28;1985;-73
2022/01/09 09:07:58;;;;;;;;;;;;;;;-0.48;100.00;98955.00;5032498;28;1049;-69
2022/01/09 09:10:24;;;;;;;;;;;;;;;-0.42;100.00;98941.25;5033996;28;801;-70
2022/01/09 09:12:54;;;;;;;;;;;;;;;-0.39;100.00;98950.88;5032845;28;1493;-71
2022/01/09 09:15:22;;;;;;;;;;;;;;;-0.37;100.00;98954.31;5032374;28;1332;-72
2022/01/09 09:17:48;;;;;;;;;;;;;;;-0.31;100.00;98958.38;5033675;28;988;-70
2022/01/09 09:20:14;;;;;;;;;;;;;;;-0.30;100.00;98952.94;5033678;28;884;-72
2022/01/09 09:22:41;;;;;;;;;;;;;;;-0.26;100.00;98954.47;5032026;28;1501;-72
2022/01/09 09:25:07;;;;;;;;;;;;;;;-0.23;100.00;98948.06;5021991;28;1915;-71
2022/01/09 09:27:33;;;;;;;;;;;;;;;-0.22;100.00;98942.63;5023074;28;1494;-72
2022/01/09 09:30:02;;;;;;;;;;;;;;;-0.15;100.00;98952.91;5026412;28;1541;-72
2022/01/09 09:32:29;;;;;;;;;;;;;;;-0.09;100.00;98953.38;5013978;28;1015;-72
2022/01/09 09:34:55;;;;;;;;;;;;;;;-0.03;100.00;98957.44;5004399;28;1495;-72
2022/01/09 09:37:22;;;;;;;;;;;;;;;0.02;100.00;98962.50;5002631;28;1456;-71
2022/01/09 09:39:51;;;;;;;;;;;;;;;0.01;100.00;98961.63;5011850;28;1084;-71
2022/01/09 09:42:17;;;;;;;;;;;;;;;0.03;100.00;98964.19;5017884;28;1130;-72
2022/01/09 09:44:43;;;;;;;;;;;;;;;0.03;100.00;98964.19;5013493;28;1404;-71
2022/01/09 09:47:11;;;;;;;;;;;;;;;0.06;100.00;98972.00;5012008;28;1985;-70
2022/01/09 09:49:38;;;;;;;;;;;;;;;0.08;100.00;98968.28;5013360;28;1182;-72
2022/01/09 09:52:05;;;;;;;;;;;;;;;0.11;100.00;98970.72;5014937;28;1482;-70
2022/01/09 09:54:31;;;;;;;;;;;;;;;0.15;100.00;98971.41;5014178;28;1498;-71
2022/01/09 09:56:58;;;;;;;;;;;;;;;0.16;100.00;98971.28;5031451;28;1534;-71
2022/01/09 09:59:25;;;;;;;;;;;;;;;0.21;100.00;98970.13;5032053;28;1581;-71
2022/01/09 10:01:51;;;;;;;;;;;;;;;0.22;100.00;98967.34;5033337;28;795;-70
2022/01/09 10:04:19;;;;;;;;;;;;;;;0.21;100.00;98972.78;5013772;28;1508;-72
2022/01/09 10:06:46;;;;;;;;;;;;;;;0.26;100.00;98970.69;5008888;28;1953;-71
2022/01/09 10:09:13;;;;;;;;;;;;;;;0.25;100.00;98976.97;5011619;28;1065;-71
2022/01/09 10:11:47;;;;;;;;;;;;;;;0.26;100.00;98973.34;5027186;28;1509;-74
2022/01/09 10:14:14;;;;;;;;;;;;;;;0.26;100.00;98984.88;5032799;28;1429;-71
2022/01/09 10:16:40;;;;;;;;;;;;;;;0.31;100.00;98981.91;5030971;28;1512;-70
2022/01/09 10:19:07;;;;;;;;;;;;;;;0.30;100.00;98985.53;5032829;28;983;-73
2022/01/09 10:21:34;;;;;;;;;;;;;;;0.32;100.00;98976.47;5031860;28;1115;-71
2022/01/09 10:24:02;;;;;;;;;;;;;;;0.34;100.00;98973.69;5033035;28;1384;-72
2022/01/09 10:26:28;;;;;;;;;;;;;;;0.38;100.00;98977.03;5032547;28;1914;-70
2022/01/09 10:28:54;;;;;;;;;;;;;;;0.42;100.00;98984.72;5013033;28;1003;-73
2022/01/09 10:31:20;;;;;;;;;;;;;;;0.48;100.00;98986.97;5013687;28;1161;-74
2022/01/09 10:33:57;;;;;;;;;;;;;;;0.53;100.00;98993.81;5006336;28;1084;-71
2022/01/09 10:36:35;;;;;;;;;;;;;;;0.56;100.00;98983.78;5012695;28;840;-73
2022/01/09 10:39:04;;;;;;;;;;;;;;;0.61;100.00;98984.31;5012046;28;1061;-71
2022/01/09 10:41:44;;;;;;;;;;;;;;;0.69;100.00;98989.13;5013293;28;1010;-72
2022/01/09 10:44:14;;;;;;;;;;;;;;;0.76;100.00;98995.78;5011836;28;1308;-71
2022/01/09 10:46:40;;;;;;;;;;;;;;;0.74;100.00;98999.53;5012539;28;1918;-71
2022/01/09 10:49:06;;;;;;;;;;;;;;;0.78;100.00;98996.53;5012483;28;999;-70
2022/01/09 10:51:32;;;;;;;;;;;;;;;0.72;100.00;98988.06;5012373;28;915;-71
2022/01/09 10:54:01;;;;;;;;;;;;;;;0.73;100.00;98995.97;5012798;28;1321;-71
2022/01/09 10:56:28;;;;;;;;;;;;;;;0.78;100.00;98988.50;5011972;28;971;-72
2022/01/09 10:58:55;;;;;;;;;;;;;;;0.85;100.00;98988.94;5010134;28;1007;-73
2022/01/09 11:01:23;;;;;;;;;;;;;;;0.92;100.00;98989.38;5012854;28;928;-71
2022/01/09 11:03:50;;;;;;;;;;;;;;;1.02;100.00;98990.47;5012180;28;881;-71
2022/01/09 11:06:17;;;;;;;;;;;;;;;1.13;100.00;98987.88;5011985;28;1975;-71
2022/01/09 11:08:43;;;;;;;;;;;;;;;1.22;100.00;98983.72;5012296;28;801;-73
2022/01/09 11:11:19;;;;;;;;;;;;;;;1.38;100.00;98985.28;5012072;28;1058;-72
2022/01/09 11:13:47;;;;;;;;;;;;;;;1.58;100.00;98981.22;5010516;28;1229;-72
2022/01/09 11:19:00;;;;;;;;;;;;;;;1.71;100.00;98986.53;5021908;28;1406;-73
2022/01/09 11:21:26;;;;;;;;;;;;;;;1.71;100.00;98997.22;5019103;28;1640;-72
2022/01/09 11:24:00;;;;;;;;;;;;;;;1.62;100.00;98999.63;5022699;28;1521;-72
2022/01/09 11:26:30;;;;;;;;;;;;;;;1.60;100.00;99006.03;5011607;28;1984;-70
2022/01/09 11:28:57;;;;;;;;;;;;;;;1.55;100.00;99000.16;5016824;28;1430;-70
2022/01/09 11:31:28;;;;;;;;;;;;;;;1.44;100.00;99009.81;5031293;28;883;-71
2022/01/09 11:33:59;;;;;;;;;;;;;;;1.36;100.00;99008.63;5031178;28;1321;-71
2022/01/09 11:36:31;;;;;;;;;;;;;;;1.32;100.00;99006.19;5031165;28;1041;-73
2022/01/09 11:39:02;;;;;;;;;;;;;;;1.33;100.00;99007.88;5031401;28;836;-73
2022/01/09 11:41:30;;;;;;;;;;;;;;;1.32;100.00;99016.00;5031307;28;907;-72
2022/01/09 11:43:59;;;;;;;;;;;;;;;1.38;100.00;99012.91;5030945;28;1317;-73
2022/01/09 11:46:27;;;;;;;;;;;;;;;1.33;100.00;99012.38;5010908;28;1981;-70
2022/01/09 11:49:01;;;;;;;;;;;;;;;1.31;100.00;99012.50;5011366;28;645;-71
2022/01/09 11:51:28;;;;;;;;;;;;;;;1.18;100.00;99019.66;5011172;28;1066;-71
2022/01/09 11:54:05;;;;;;;;;;;;;;;1.20;100.00;99011.53;5011396;28;975;-73
2022/01/09 11:56:50;;;;;;;;;;;;;;;1.13;100.00;99016.44;5012126;28;987;-70
2022/01/09 11:59:18;;;;;;;;;;;;;;;1.10;100.00;99017.50;5010009;28;991;-70
2022/01/09 12:01:45;;;;;;;;;;;;;;;1.12;100.00;99020.94;5011377;28;1047;-71
2022/01/09 12:04:41;;;;;;;;;;;;;;;1.16;100.00;99017.09;5011021;28;1421;-71
2022/01/09 12:07:08;;;;;;;;;;;;;;;1.18;100.00;99022.34;5010693;28;1919;-70
2022/01/09 12:09:35;;;;;;;;;;;;;;;1.17;100.00;99028.63;5010732;28;1092;-71
2022/01/09 12:12:05;;;;;;;;;;;;;;;1.22;100.00;99028.31;5010701;28;844;-72
2022/01/09 12:14:54;;;;;;;;;;;;;;;1.26;100.00;99024.47;5011039;28;1314;-70
2022/01/09 12:17:36;;;;;;;;;;;;;;;1.34;100.00;99027.47;5010709;28;1059;-71
2022/01/09 12:20:07;;;;;;;;;;;;;;;1.41;100.00;99028.72;5011113;28;958;-72
2022/01/09 12:23:01;;;;;;;;;;;;;;;1.41;100.00;99028.72;5010948;28;1164;-72
2022/01/09 12:25:45;;;;;;;;;;;;;;;1.45;100.00;99024.03;5011077;28;1383;-73
2022/01/09 12:28:14;;;;;;;;;;;;;;;1.52;100.00;99029.81;5022448;28;1351;-72
2022/01/09 12:30:47;;;;;;;;;;;;;;;1.64;100.00;99032.47;5029138;28;1536;-70
2022/01/09 12:33:15;;;;;;;;;;;;;;;1.66;100.00;99032.34;5011286;28;907;-70
2022/01/09 12:35:43;;;;;;;;;;;;;;;1.80;100.00;99034.91;5010403;28;1462;-69
2022/01/09 12:38:13;;;;;;;;;;;;;;;1.81;100.00;99041.09;5014279;28;1512;-71
2022/01/09 12:40:40;;;;;;;;;;;;;;;1.93;100.00;99044.72;5010740;28;756;-70
2022/01/09 12:43:08;;;;;;;;;;;;;;;1.94;100.00;99047.28;5010602;28;1062;-71
2022/01/09 12:45:35;;;;;;;;;;;;;;;1.91;100.00;99052.88;5010466;28;1305;-71
2022/01/09 12:48:04;;;;;;;;;;;;;;;1.88;100.00;99052.22;5010326;28;1977;-71
2022/01/09 12:50:31;;;;;;;;;;;;;;;1.86;100.00;99051.47;5010880;28;718;-71
2022/01/09 12:53:15;;;;;;;;;;;;;;;1.80;100.00;99058.13;5011917;28;1549;-69
2022/01/09 12:55:59;;;;;;;;;;;;;;;1.77;100.00;99066.38;5029831;28;1466;-70
2022/01/09 12:58:26;;;;;;;;;;;;;;;1.76;100.00;99062.81;5023739;28;1477;-70